Time;durP1;ratioP1;P1;durP2;ratioP2;P2;SDS_P1;SDS_P2;PMS_P1;PMS_P2;Temp;Humidity;BMP_temperature;BMP_pressure;BME280_temperature;BME280_humidity;BME280_pressure;Samples;Min_cycle;Max_cycle;Signal;HPM_P1;HPM_P2
2021/11/28 00:01:49;;;;;;;4.07;1.63;;;17.50;64.00;;;;;;5034753;28;20474;-29
2021/11/28 00:04:14;;;;;;;3.85;1.60;;;17.50;63.20;;;;;;5021072;28;20049;-28
2021/11/28 00:06:49;;;;;;;3.20;1.92;;;17.50;63.20;;;;;;5041008;28;20044;-30
2021/11/28 00:12:08;;;;;;;4.13;1.90;;;17.50;63.30;;;;;;5054606;28;20048;-31
2021/11/28 00:14:34;;;;;;;2.25;1.48;;;17.50;63.20;;;;;;5039389;28;20049;-33
2021/11/28 00:17:00;;;;;;;4.10;1.90;;;17.50;63.10;;;;;;5039339;28;20064;-30
2021/11/28 00:19:26;;;;;;;2.20;1.48;;;17.50;63.20;;;;;;5033991;28;20057;-29
2021/11/28 00:21:51;;;;;;;3.83;1.58;;;17.50;63.20;;;;;;5033225;28;20052;-30
2021/11/28 00:24:17;;;;;;;2.75;1.70;;;17.40;63.10;;;;;;5024770;28;20704;-27
2021/11/28 00:26:43;;;;;;;2.67;1.45;;;17.50;63.00;;;;;;5037774;28;20102;-28
2021/11/28 00:29:09;;;;;;;2.55;1.83;;;17.50;63.00;;;;;;5044585;28;20072;-30
2021/11/28 00:31:35;;;;;;;2.30;1.50;;;17.50;62.90;;;;;;5034839;28;20033;-35
2021/11/28 00:34:00;;;;;;;1.90;1.30;;;17.50;62.90;;;;;;5032713;28;20041;-33
2021/11/28 00:36:26;;;;;;;1.50;1.10;;;17.50;62.90;;;;;;5034120;28;20037;-32
2021/11/28 00:38:52;;;;;;;3.05;1.42;;;17.50;62.80;;;;;;5034835;28;20045;-32
2021/11/28 00:41:17;;;;;;;1.48;1.38;;;17.50;62.60;;;;;;5034367;28;20065;-25
2021/11/28 00:43:43;;;;;;;2.08;1.15;;;17.50;62.80;;;;;;5019697;28;20036;-27
2021/11/28 00:46:08;;;;;;;2.67;1.40;;;17.50;62.70;;;;;;5029335;28;20048;-29
2021/11/28 00:48:37;;;;;;;2.33;1.40;;;17.50;62.80;;;;;;5033054;28;20128;-31
2021/11/28 00:53:44;;;;;;;2.90;1.40;;;17.50;62.50;;;;;;5040126;28;20076;-35
2021/11/28 00:56:09;;;;;;;3.08;1.17;;;17.50;62.50;;;;;;5033494;28;20041;-35
2021/11/28 00:58:35;;;;;;;2.53;1.00;;;17.50;62.50;;;;;;5020661;28;20050;-30
2021/11/28 01:01:00;;;;;;;1.70;1.15;;;17.40;62.50;;;;;;5032697;28;20041;-29
2021/11/28 01:03:26;;;;;;;1.30;1.20;;;17.40;62.60;;;;;;5019375;28;20053;-25
2021/11/28 01:05:53;;;;;;;3.05;1.23;;;17.50;62.50;;;;;;5021717;28;20042;-34
2021/11/28 01:08:19;;;;;;;3.58;1.33;;;17.40;62.60;;;;;;5039075;28;20059;-26
2021/11/28 01:10:46;;;;;;;2.20;1.45;;;17.40;62.50;;;;;;5033155;28;20105;-34
2021/11/28 01:13:12;;;;;;;4.20;1.10;;;17.40;62.60;;;;;;5029481;28;20055;-33
2021/11/28 01:15:38;;;;;;;2.47;1.67;;;17.40;63.60;;;;;;5034377;28;20042;-29
2021/11/28 01:18:04;;;;;;;5.75;1.60;;;17.40;64.50;;;;;;5033607;28;20099;-28
2021/11/28 01:20:29;;;;;;;5.35;1.77;;;17.40;66.00;;;;;;5032801;28;20548;-33
2021/11/28 01:22:55;;;;;;;2.38;1.40;;;17.40;65.10;;;;;;5030283;28;20060;-31
2021/11/28 01:25:20;;;;;;;4.03;1.40;;;17.40;65.60;;;;;;5032267;28;20037;-31
2021/11/28 01:27:46;;;;;;;3.17;1.20;;;17.40;65.90;;;;;;5028773;28;20053;-31
2021/11/28 01:30:12;;;;;;;3.05;1.30;;;17.40;65.60;;;;;;5023589;28;20033;-30
2021/11/28 01:32:38;;;;;;;2.28;1.27;;;17.40;65.40;;;;;;5019054;28;20046;-26
2021/11/28 01:35:05;;;;;;;2.42;1.42;;;17.40;65.30;;;;;;5026897;28;20037;-26
2021/11/28 01:37:34;;;;;;;4.50;1.27;;;17.30;64.80;;;;;;5038118;28;20069;-28
2021/11/28 01:40:04;;;;;;;3.45;1.50;;;17.30;64.80;;;;;;5032894;28;20490;-31
2021/11/28 01:42:43;;;;;;;2.75;0.90;;;17.30;64.40;;;;;;5033163;28;20103;-25
2021/11/28 01:45:14;;;;;;;2.80;1.10;;;17.30;64.30;;;;;;5033442;28;20033;-27
2021/11/28 01:47:40;;;;;;;3.60;1.50;;;17.40;64.00;;;;;;5033941;28;20053;-26
2021/11/28 01:50:06;;;;;;;2.55;1.40;;;17.40;63.80;;;;;;5033256;28;20044;-30
2021/11/28 01:52:35;;;;;;;3.38;1.10;;;17.40;63.80;;;;;;5050809;28;20053;-27
2021/11/28 01:55:00;;;;;;;2.85;0.93;;;17.30;63.60;;;;;;5041959;28;20523;-30
2021/11/28 01:57:26;;;;;;;1.90;1.10;;;17.30;63.40;;;;;;5039702;28;20903;-31
2021/11/28 01:59:52;;;;;;;4.20;1.05;;;17.30;63.40;;;;;;5051256;28;20037;-26
2021/11/28 02:02:17;;;;;;;2.08;1.23;;;17.30;63.40;;;;;;5052622;28;20033;-30
2021/11/28 02:04:43;;;;;;;2.50;1.13;;;17.30;63.40;;;;;;5052213;28;20090;-26
2021/11/28 02:07:09;;;;;;;2.53;1.02;;;17.30;63.20;;;;;;5053751;28;20049;-30
2021/11/28 02:09:37;;;;;;;2.13;1.00;;;17.40;63.10;;;;;;5018399;28;20543;-30
2021/11/28 02:12:03;;;;;;;2.00;0.90;;;17.30;63.00;;;;;;5052885;28;20664;-31
2021/11/28 02:14:28;;;;;;;1.42;1.05;;;17.30;63.00;;;;;;5050814;28;20068;-29
2021/11/28 02:16:54;;;;;;;7.38;0.98;;;17.30;63.00;;;;;;5046224;28;20060;-28
2021/11/28 02:19:19;;;;;;;2.05;1.00;;;17.30;63.00;;;;;;5052594;28;20402;-28
2021/11/28 02:21:45;;;;;;;2.08;1.08;;;17.30;62.80;;;;;;5052982;28;20130;-29
2021/11/28 02:24:10;;;;;;;1.50;1.00;;;17.30;63.00;;;;;;5052293;28;20040;-31
2021/11/28 02:26:36;;;;;;;1.48;0.85;;;17.30;63.00;;;;;;5050149;28;20068;-27
2021/11/28 02:29:02;;;;;;;4.07;0.93;;;17.30;62.90;;;;;;5034045;28;20501;-28
2021/11/28 02:31:27;;;;;;;3.78;0.80;;;17.30;63.00;;;;;;5032767;28;20045;-29
2021/11/28 02:33:53;;;;;;;2.13;0.90;;;17.30;62.90;;;;;;5033869;28;20736;-24
2021/11/28 02:36:19;;;;;;;1.35;1.08;;;17.20;62.90;;;;;;5023334;28;20042;-26
2021/11/28 02:38:44;;;;;;;1.40;0.98;;;17.30;62.80;;;;;;5037492;28;20045;-31
2021/11/28 02:41:10;;;;;;;1.85;0.70;;;17.20;62.80;;;;;;5024043;28;20049;-27
2021/11/28 02:43:35;;;;;;;1.95;0.70;;;17.30;62.90;;;;;;5036144;28;20052;-28
2021/11/28 02:46:03;;;;;;;1.80;0.98;;;17.20;62.90;;;;;;5037230;28;20518;-27
2021/11/28 02:48:28;;;;;;;1.08;0.73;;;17.30;62.70;;;;;;5039301;28;20052;-27
2021/11/28 02:50:54;;;;;;;1.45;0.88;;;17.20;62.80;;;;;;5043375;28;20037;-32
2021/11/28 02:53:19;;;;;;;1.67;0.60;;;17.30;62.60;;;;;;5045539;28;20041;-32
2021/11/28 02:55:48;;;;;;;1.42;1.00;;;17.30;62.70;;;;;;5052782;28;20140;-30
2021/11/28 02:58:14;;;;;;;0.90;0.80;;;17.20;62.70;;;;;;5055190;28;20048;-31
2021/11/28 03:00:42;;;;;;;0.93;0.82;;;17.20;62.80;;;;;;5056965;28;20131;-26
2021/11/28 03:03:08;;;;;;;1.35;0.57;;;17.20;62.70;;;;;;5056361;28;20044;-30
2021/11/28 03:05:33;;;;;;;0.70;0.50;;;17.20;62.70;;;;;;5055853;28;20490;-32
2021/11/28 03:07:59;;;;;;;1.55;0.80;;;17.20;62.70;;;;;;5053173;28;20037;-28
2021/11/28 03:10:39;;;;;;;2.05;0.75;;;17.20;62.60;;;;;;5055619;28;20146;-31
2021/11/28 03:13:07;;;;;;;4.00;0.95;;;17.20;62.50;;;;;;5056123;28;20040;-30
2021/11/28 03:15:33;;;;;;;3.00;0.80;;;17.30;62.50;;;;;;5055613;28;20049;-27
2021/11/28 03:17:59;;;;;;;3.30;1.00;;;17.20;62.50;;;;;;5056471;28;20044;-28
2021/11/28 03:20:25;;;;;;;2.05;0.50;;;17.20;62.70;;;;;;5055364;28;20053;-32
2021/11/28 03:22:51;;;;;;;1.00;0.70;;;17.30;62.50;;;;;;5056621;28;20036;-31
2021/11/28 03:25:21;;;;;;;0.95;0.65;;;17.20;62.50;;;;;;5057097;28;20486;-29
2021/11/28 03:27:47;;;;;;;0.93;0.75;;;17.30;62.50;;;;;;5028905;28;20037;-33
2021/11/28 03:30:13;;;;;;;1.58;0.55;;;17.20;62.60;;;;;;5029575;28;20095;-31
2021/11/28 03:32:39;;;;;;;1.58;0.68;;;17.20;62.50;;;;;;5033745;28;20052;-28
2021/11/28 03:35:05;;;;;;;0.70;0.50;;;17.20;62.40;;;;;;5030057;28;20046;-25
2021/11/28 03:37:30;;;;;;;0.60;0.60;;;17.20;62.50;;;;;;5035577;28;20045;-34
2021/11/28 03:39:57;;;;;;;0.98;0.60;;;17.20;62.40;;;;;;5035934;28;20041;-31
2021/11/28 03:42:22;;;;;;;0.95;0.70;;;17.20;62.40;;;;;;5019284;28;20196;-35
2021/11/28 03:44:49;;;;;;;0.68;0.50;;;17.20;62.40;;;;;;5020217;28;20088;-31
2021/11/28 03:47:14;;;;;;;0.88;0.57;;;17.20;62.40;;;;;;5032690;28;20050;-35
2021/11/28 03:49:40;;;;;;;0.77;0.50;;;17.20;62.30;;;;;;5035750;28;20064;-25
2021/11/28 03:52:06;;;;;;;1.60;0.60;;;17.20;62.40;;;;;;5032819;28;20041;-30
2021/11/28 03:54:31;;;;;;;0.80;0.57;;;17.20;62.30;;;;;;5031741;28;20052;-28
2021/11/28 03:56:57;;;;;;;0.88;0.50;;;17.20;62.30;;;;;;5035289;28;20049;-31
2021/11/28 03:59:22;;;;;;;1.08;0.38;;;17.20;62.30;;;;;;5035164;28;20517;-32
2021/11/28 04:01:48;;;;;;;0.93;0.63;;;17.20;62.40;;;;;;5035828;28;20069;-27
2021/11/28 04:04:14;;;;;;;0.50;0.50;;;17.10;62.30;;;;;;5035648;28;20453;-27
2021/11/28 04:06:41;;;;;;;0.93;0.57;;;17.10;62.30;;;;;;5023265;28;20095;-25
2021/11/28 04:09:07;;;;;;;1.15;0.60;;;17.20;62.20;;;;;;5034163;28;20056;-33
2021/11/28 04:11:33;;;;;;;1.15;0.50;;;17.20;62.10;;;;;;5034292;28;20045;-26
2021/11/28 04:13:58;;;;;;;0.65;0.50;;;17.20;62.20;;;;;;5036040;28;20119;-29
2021/11/28 04:16:24;;;;;;;0.82;0.70;;;17.10;62.20;;;;;;5015019;28;20048;-32
2021/11/28 04:18:49;;;;;;;1.40;0.55;;;17.10;62.20;;;;;;5015717;28;20041;-29
2021/11/28 04:21:15;;;;;;;1.05;0.70;;;17.20;62.20;;;;;;5015711;28;20100;-29
2021/11/28 04:23:40;;;;;;;0.82;0.50;;;17.20;62.10;;;;;;5027866;28;20045;-24
2021/11/28 04:26:06;;;;;;;1.00;0.65;;;17.20;62.20;;;;;;5035122;28;20084;-27
2021/11/28 04:28:32;;;;;;;0.75;0.50;;;17.20;62.90;;;;;;5020846;28;20038;-27
2021/11/28 04:30:57;;;;;;;2.00;0.50;;;17.10;62.00;;;;;;5035532;28;20107;-28
2021/11/28 04:33:23;;;;;;;0.52;0.40;;;17.10;62.00;;;;;;5021091;28;20129;-28
2021/11/28 04:35:49;;;;;;;0.73;0.60;;;17.20;62.00;;;;;;5030062;28;20050;-27
2021/11/28 04:38:14;;;;;;;1.75;0.52;;;17.10;62.00;;;;;;5016710;28;20091;-26
2021/11/28 04:40:40;;;;;;;1.40;0.70;;;17.20;61.90;;;;;;5025760;28;20057;-28
2021/11/28 04:43:06;;;;;;;0.60;0.50;;;17.20;62.00;;;;;;5022963;28;20391;-31
2021/11/28 04:45:31;;;;;;;0.38;0.35;;;17.10;61.90;;;;;;5032884;28;20069;-30
2021/11/28 04:47:57;;;;;;;0.73;0.60;;;17.10;61.90;;;;;;5034482;28;20115;-27
2021/11/28 04:50:22;;;;;;;1.00;0.60;;;17.10;61.90;;;;;;5042120;28;20034;-33
2021/11/28 04:52:48;;;;;;;0.75;0.45;;;17.10;61.90;;;;;;5034726;28;20033;-29
2021/11/28 04:55:14;;;;;;;1.05;0.40;;;17.10;61.80;;;;;;5029111;28;20034;-26
2021/11/28 04:57:40;;;;;;;0.50;0.35;;;17.10;61.80;;;;;;5026054;28;20041;-28
2021/11/28 05:00:09;;;;;;;0.50;0.40;;;17.10;61.80;;;;;;5033854;28;20140;-32
2021/11/28 05:02:34;;;;;;;0.80;0.68;;;17.10;61.90;;;;;;5033392;28;20061;-23
2021/11/28 05:05:00;;;;;;;0.85;0.45;;;17.10;61.90;;;;;;5023960;28;20053;-24
2021/11/28 05:07:26;;;;;;;0.47;0.40;;;17.10;61.90;;;;;;5029978;28;20048;-31
2021/11/28 05:09:51;;;;;;;0.80;0.60;;;17.10;61.80;;;;;;5022641;28;20049;-29
2021/11/28 05:12:17;;;;;;;0.63;0.63;;;17.10;61.80;;;;;;5014461;28;20103;-31
2021/11/28 05:14:42;;;;;;;0.35;0.30;;;17.10;61.80;;;;;;5024312;28;20071;-33
2021/11/28 05:17:08;;;;;;;0.52;0.50;;;17.10;61.80;;;;;;5030188;28;20026;-35
2021/11/28 05:19:33;;;;;;;0.63;0.50;;;17.10;61.80;;;;;;5023088;28;20476;-29
2021/11/28 05:22:01;;;;;;;0.60;0.30;;;17.10;61.80;;;;;;5029974;28;20045;-26
2021/11/28 05:24:26;;;;;;;0.43;0.38;;;17.10;61.70;;;;;;5022933;28;20096;-25
2021/11/28 05:26:52;;;;;;;0.70;0.50;;;17.10;61.70;;;;;;5031853;28;20076;-29
2021/11/28 05:29:18;;;;;;;0.68;0.28;;;17.10;61.70;;;;;;5025549;28;20096;-34
2021/11/28 05:31:44;;;;;;;0.55;0.30;;;17.10;61.70;;;;;;5029986;28;20049;-33
2021/11/28 05:34:10;;;;;;;0.82;0.50;;;17.10;62.30;;;;;;5039391;28;20041;-32
2021/11/28 05:36:35;;;;;;;0.60;0.30;;;17.10;61.50;;;;;;5027958;28;20041;-32
2021/11/28 05:39:01;;;;;;;0.85;0.50;;;17.10;61.50;;;;;;5024467;28;20093;-24
2021/11/28 05:41:26;;;;;;;0.80;0.38;;;17.10;61.50;;;;;;5022936;28;20049;-24
2021/11/28 05:43:53;;;;;;;0.68;0.47;;;17.10;61.50;;;;;;5038240;28;20073;-26
2021/11/28 05:46:18;;;;;;;0.60;0.60;;;17.10;61.50;;;;;;5039927;28;20409;-30
2021/11/28 05:48:44;;;;;;;2.17;0.60;;;17.10;61.60;;;;;;5030619;28;20048;-25
2021/11/28 05:51:10;;;;;;;0.30;0.30;;;17.10;61.60;;;;;;5038199;28;20045;-31
2021/11/28 05:53:36;;;;;;;0.82;0.60;;;17.10;61.40;;;;;;5032741;28;20048;-34
2021/11/28 05:56:01;;;;;;;0.50;0.40;;;17.10;61.50;;;;;;5029972;28;20441;-27
2021/11/28 05:58:27;;;;;;;0.30;0.30;;;17.10;61.40;;;;;;5027097;28;20128;-26
2021/11/28 06:00:53;;;;;;;0.88;0.50;;;17.10;61.40;;;;;;5040923;28;20046;-29
2021/11/28 06:03:18;;;;;;;0.50;0.32;;;17.10;61.40;;;;;;5033355;28;20095;-31
2021/11/28 06:05:45;;;;;;;1.13;0.40;;;17.00;61.30;;;;;;5031753;28;20558;-33
2021/11/28 06:08:11;;;;;;;0.47;0.30;;;17.10;61.30;;;;;;5035527;28;20560;-34
2021/11/28 06:10:36;;;;;;;0.30;0.30;;;17.10;61.20;;;;;;5035222;28;20494;-34
2021/11/28 06:13:02;;;;;;;0.47;0.40;;;17.10;61.30;;;;;;5026283;28;20030;-27
2021/11/28 06:15:28;;;;;;;1.27;0.40;;;17.10;61.10;;;;;;5037700;28;20045;-30
2021/11/28 06:17:53;;;;;;;0.30;0.30;;;17.10;61.20;;;;;;5029963;28;20034;-29
2021/11/28 06:20:19;;;;;;;0.80;0.40;;;17.10;61.30;;;;;;5031368;28;20422;-26
2021/11/28 06:22:45;;;;;;;0.50;0.50;;;17.00;61.30;;;;;;5026349;28;20045;-29
2021/11/28 06:25:10;;;;;;;0.50;0.30;;;17.00;61.30;;;;;;5026375;28;20046;-28
2021/11/28 06:27:36;;;;;;;0.88;0.57;;;17.00;61.30;;;;;;5048309;28;20072;-23
2021/11/28 06:30:03;;;;;;;0.90;0.20;;;17.10;61.20;;;;;;5037973;28;20057;-30
2021/11/28 06:32:28;;;;;;;0.47;0.40;;;17.10;61.90;;;;;;5036906;28;20376;-30
2021/11/28 06:34:54;;;;;;;0.60;0.40;;;17.10;61.20;;;;;;5037853;28;20048;-24
2021/11/28 06:37:19;;;;;;;0.88;0.40;;;17.00;61.20;;;;;;5038074;28;20041;-30
2021/11/28 06:39:45;;;;;;;0.10;0.10;;;17.00;61.10;;;;;;5030663;28;20081;-23
2021/11/28 06:42:11;;;;;;;0.47;0.40;;;17.00;61.10;;;;;;5031206;28;20056;-28
2021/11/28 06:44:36;;;;;;;0.30;0.30;;;17.00;61.10;;;;;;5036783;28;20073;-30
2021/11/28 06:47:02;;;;;;;0.30;0.28;;;17.00;61.10;;;;;;5024443;28;20403;-28
2021/11/28 06:49:28;;;;;;;0.35;0.30;;;17.00;61.10;;;;;;5036660;28;20041;-29
2021/11/28 06:51:56;;;;;;;0.20;0.20;;;17.00;61.00;;;;;;5037463;28;20051;-30
2021/11/28 06:54:23;;;;;;;0.40;0.30;;;17.00;61.10;;;;;;5030392;28;20050;-29
2021/11/28 06:56:48;;;;;;;0.75;0.28;;;17.00;61.20;;;;;;5030979;28;20095;-26
2021/11/28 06:59:14;;;;;;;0.50;0.28;;;17.00;61.20;;;;;;5037529;28;20048;-27
2021/11/28 07:01:40;;;;;;;0.30;0.22;;;17.00;61.20;;;;;;5036737;28;20040;-28
2021/11/28 07:04:05;;;;;;;0.80;0.55;;;17.00;61.10;;;;;;5024111;28;20501;-26
2021/11/28 07:06:31;;;;;;;0.43;0.38;;;17.00;61.00;;;;;;5030113;28;20497;-31
2021/11/28 07:08:56;;;;;;;0.40;0.30;;;17.00;61.00;;;;;;5032795;28;20119;-25
2021/11/28 07:11:22;;;;;;;0.40;0.40;;;17.00;61.00;;;;;;5030220;28;20092;-31
2021/11/28 07:13:49;;;;;;;0.50;0.30;;;17.00;61.00;;;;;;5036421;28;20049;-28
2021/11/28 07:16:15;;;;;;;0.40;0.40;;;17.00;61.00;;;;;;5036959;28;20041;-29
2021/11/28 07:18:43;;;;;;;0.30;0.30;;;17.00;61.00;;;;;;5036084;28;20060;-28
2021/11/28 07:21:09;;;;;;;0.73;0.40;;;17.00;61.90;;;;;;5035316;28;20037;-27
2021/11/28 07:23:35;;;;;;;0.93;0.43;;;17.00;61.00;;;;;;5030095;28;20048;-32
2021/11/28 07:26:01;;;;;;;0.30;0.20;;;17.00;61.00;;;;;;5050047;28;20415;-27
2021/11/28 07:28:27;;;;;;;0.20;0.20;;;17.00;61.00;;;;;;5038291;28;20045;-33
2021/11/28 07:30:52;;;;;;;0.47;0.32;;;17.00;60.90;;;;;;5036712;28;20549;-32
2021/11/28 07:33:18;;;;;;;0.32;0.10;;;17.00;60.90;;;;;;5054776;28;20402;-34
2021/11/28 07:35:44;;;;;;;0.60;0.30;;;17.00;60.90;;;;;;5053330;28;20037;-27
2021/11/28 07:38:09;;;;;;;0.90;0.43;;;17.00;60.90;;;;;;5038457;28;20061;-29
2021/11/28 07:40:35;;;;;;;0.75;0.30;;;17.00;61.00;;;;;;5054860;28;20025;-31
2021/11/28 07:43:00;;;;;;;0.55;0.30;;;17.00;60.90;;;;;;5031465;28;20044;-28
2021/11/28 07:45:26;;;;;;;0.73;0.30;;;16.90;60.90;;;;;;5045992;28;20037;-28
2021/11/28 07:47:52;;;;;;;0.57;0.32;;;17.00;60.90;;;;;;5048469;28;20056;-29
2021/11/28 07:50:17;;;;;;;0.20;0.17;;;16.90;60.90;;;;;;5032541;28;20517;-31
2021/11/28 07:52:43;;;;;;;0.40;0.30;;;16.90;61.00;;;;;;5041986;28;20041;-34
2021/11/28 07:55:09;;;;;;;0.82;0.40;;;16.90;60.90;;;;;;5036717;28;20053;-32
2021/11/28 07:57:35;;;;;;;0.47;0.40;;;16.90;60.80;;;;;;5043842;28;20033;-31
2021/11/28 08:00:01;;;;;;;0.68;0.40;;;16.90;60.70;;;;;;5039188;28;20057;-28
2021/11/28 08:02:26;;;;;;;0.63;0.30;;;16.90;60.70;;;;;;5042402;28;20033;-32
2021/11/28 08:04:52;;;;;;;1.17;0.45;;;16.90;60.90;;;;;;5035302;28;20053;-33
2021/11/28 08:07:18;;;;;;;0.73;0.40;;;16.90;60.80;;;;;;5042286;28;20053;-30
2021/11/28 08:09:43;;;;;;;0.52;0.40;;;16.90;60.70;;;;;;5025861;28;20045;-33
2021/11/28 08:12:09;;;;;;;0.35;0.20;;;16.90;60.70;;;;;;5035135;28;20068;-30
2021/11/28 08:14:35;;;;;;;0.52;0.30;;;17.00;60.70;;;;;;5028867;28;20601;-28
2021/11/28 08:17:01;;;;;;;0.28;0.22;;;16.90;60.70;;;;;;5026643;28;20064;-30
2021/11/28 08:19:26;;;;;;;0.30;0.30;;;17.00;60.70;;;;;;5033070;28;20510;-28
2021/11/28 08:21:53;;;;;;;0.32;0.32;;;16.90;60.60;;;;;;5024524;28;20145;-29
2021/11/28 08:24:18;;;;;;;0.28;0.25;;;17.00;60.70;;;;;;5020581;28;20064;-29
2021/11/28 08:26:44;;;;;;;0.35;0.25;;;17.00;60.60;;;;;;5028193;28;20046;-29
2021/11/28 08:29:09;;;;;;;0.40;0.30;;;16.90;60.60;;;;;;5030449;28;20065;-24
2021/11/28 08:31:35;;;;;;;1.55;0.40;;;16.90;60.60;;;;;;5032971;28;20542;-28
2021/11/28 08:34:01;;;;;;;0.80;0.35;;;16.90;60.60;;;;;;5035752;28;20083;-29
2021/11/28 08:36:26;;;;;;;0.50;0.30;;;16.90;60.60;;;;;;5034274;28;20127;-28
2021/11/28 08:38:53;;;;;;;0.17;0.13;;;16.90;60.50;;;;;;5027719;28;20062;-26
2021/11/28 08:41:21;;;;;;;0.32;0.32;;;17.00;60.50;;;;;;5028177;28;20055;-30
2021/11/28 08:43:47;;;;;;;0.40;0.40;;;17.00;60.50;;;;;;5031713;28;20068;-25
2021/11/28 08:46:13;;;;;;;0.35;0.28;;;16.90;60.50;;;;;;5023708;28;20050;-27
2021/11/28 08:48:40;;;;;;;0.43;0.40;;;17.00;60.50;;;;;;5022335;28;20407;-33
2021/11/28 08:51:07;;;;;;;0.20;0.20;;;17.00;60.30;;;;;;5034835;28;20100;-27
2021/11/28 08:53:32;;;;;;;0.20;0.20;;;17.00;60.30;;;;;;5034872;28;20091;-31
2021/11/28 08:55:58;;;;;;;0.28;0.20;;;17.00;60.20;;;;;;5033330;28;20136;-32
2021/11/28 08:58:24;;;;;;;0.30;0.30;;;17.00;60.20;;;;;;5033114;28;20483;-27
2021/11/28 09:00:49;;;;;;;0.20;0.20;;;17.00;60.20;;;;;;5020916;28;20037;-30
2021/11/28 09:03:15;;;;;;;0.20;0.20;;;17.00;60.30;;;;;;5039733;28;20494;-31
2021/11/28 09:05:40;;;;;;;0.32;0.20;;;17.10;60.30;;;;;;5024327;28;20068;-29
2021/11/28 09:08:06;;;;;;;0.47;0.32;;;17.10;60.30;;;;;;5033987;28;20069;-32
2021/11/28 09:10:32;;;;;;;0.30;0.30;;;17.10;60.30;;;;;;5029697;28;20045;-29
2021/11/28 09:12:58;;;;;;;0.22;0.22;;;17.00;60.30;;;;;;5030657;28;20099;-32
2021/11/28 09:15:25;;;;;;;0.90;0.45;;;17.10;60.30;;;;;;5038206;28;20057;-26
2021/11/28 09:17:56;;;;;;;1.75;0.32;;;17.10;60.30;;;;;;5028222;28;20069;-36
2021/11/28 09:20:24;;;;;;;0.40;0.30;;;17.10;60.40;;;;;;5041659;28;20037;-28
2021/11/28 09:25:16;;;;;;;0.43;0.20;;;17.10;60.30;;;;;;5028292;28;20049;-33
2021/11/28 09:27:46;;;;;;;0.20;0.20;;;17.10;60.30;;;;;;5053172;28;20620;-34
2021/11/28 09:30:11;;;;;;;0.77;0.30;;;17.10;60.20;;;;;;5053900;28;20062;-32
2021/11/28 09:32:37;;;;;;;0.85;0.32;;;17.10;60.20;;;;;;5034049;28;20497;-31
2021/11/28 09:35:03;;;;;;;0.25;0.25;;;17.10;60.20;;;;;;5053946;28;20043;-26
2021/11/28 09:37:28;;;;;;;0.30;0.22;;;17.10;60.20;;;;;;5053540;28;20037;-30
2021/11/28 09:39:54;;;;;;;0.30;0.20;;;17.10;60.20;;;;;;5053524;28;20040;-34
2021/11/28 09:42:24;;;;;;;0.10;0.10;;;17.10;60.10;;;;;;5053441;28;20055;-29
2021/11/28 09:44:49;;;;;;;0.50;0.20;;;17.10;60.20;;;;;;5053075;28;20045;-27
2021/11/28 09:47:15;;;;;;;1.23;0.10;;;17.10;60.20;;;;;;5055198;28;20039;-28
2021/11/28 09:49:42;;;;;;;0.45;0.30;;;17.10;60.30;;;;;;5055447;28;20021;-31
2021/11/28 09:52:14;;;;;;;1.48;0.52;;;17.10;60.30;;;;;;5055125;28;20029;-28
2021/11/28 09:54:42;;;;;;;0.35;0.20;;;17.10;60.40;;;;;;5055405;28;20025;-27
2021/11/28 09:57:12;;;;;;;0.57;0.35;;;17.10;60.30;;;;;;5057762;28;20028;-35
2021/11/28 09:59:38;;;;;;;0.40;0.30;;;17.10;60.30;;;;;;5040987;28;20500;-29
2021/11/28 10:02:06;;;;;;;0.30;0.30;;;17.10;60.30;;;;;;5055000;28;20025;-27
2021/11/28 10:04:31;;;;;;;0.30;0.20;;;17.10;60.20;;;;;;5039961;28;20044;-28
2021/11/28 10:06:57;;;;;;;0.32;0.32;;;17.10;60.20;;;;;;5035973;28;20499;-31
2021/11/28 10:09:22;;;;;;;0.28;0.28;;;17.10;60.20;;;;;;5040263;28;20083;-35
2021/11/28 10:12:11;;;;;;;0.40;0.30;;;17.10;60.30;;;;;;5057573;28;20094;-26
2021/11/28 10:14:37;;;;;;;0.50;0.30;;;17.10;60.20;;;;;;5054120;28;20033;-27
2021/11/28 10:17:02;;;;;;;0.38;0.30;;;17.10;60.20;;;;;;5057560;28;20379;-32
2021/11/28 10:19:32;;;;;;;0.35;0.20;;;17.20;60.10;;;;;;5054988;28;20049;-29
2021/11/28 10:21:58;;;;;;;0.20;0.20;;;17.10;60.00;;;;;;5056962;28;20049;-30
2021/11/28 10:24:24;;;;;;;1.30;0.30;;;17.10;60.00;;;;;;5054429;28;20040;-27
2021/11/28 10:27:05;;;;;;;0.35;0.20;;;17.10;60.10;;;;;;5055242;28;20020;-29
2021/11/28 10:29:37;;;;;;;0.38;0.30;;;17.10;60.00;;;;;;5051328;28;20081;-27
2021/11/28 10:32:05;;;;;;;0.40;0.20;;;17.10;60.00;;;;;;5036058;28;20063;-27
2021/11/28 10:34:34;;;;;;;0.30;0.20;;;17.20;60.00;;;;;;5054059;28;20021;-27
2021/11/28 10:37:07;;;;;;;0.50;0.40;;;17.20;60.00;;;;;;5057335;28;20013;-30
2021/11/28 10:39:38;;;;;;;0.80;0.60;;;17.10;59.90;;;;;;5058018;28;20025;-28
2021/11/28 10:42:03;;;;;;;0.20;0.20;;;17.10;59.90;;;;;;5046386;28;20036;-30
2021/11/28 10:44:29;;;;;;;0.65;0.30;;;17.20;59.90;;;;;;5056895;28;20025;-27
2021/11/28 10:47:04;;;;;;;0.35;0.30;;;17.20;59.90;;;;;;5052725;28;20071;-30
2021/11/28 10:49:29;;;;;;;0.55;0.30;;;17.20;59.90;;;;;;5044028;28;20098;-29
2021/11/28 10:52:01;;;;;;;0.20;0.20;;;17.20;59.80;;;;;;5057902;28;20025;-31
2021/11/28 10:54:34;;;;;;;1.65;0.40;;;17.20;59.80;;;;;;5044130;28;20416;-31
2021/11/28 10:57:06;;;;;;;0.90;0.40;;;17.20;59.90;;;;;;5057828;28;20029;-29
2021/11/28 10:59:32;;;;;;;0.30;0.30;;;17.20;59.80;;;;;;5049661;28;20045;-25
2021/11/28 11:01:58;;;;;;;0.30;0.30;;;17.20;59.80;;;;;;5054478;28;20441;-26
2021/11/28 11:04:24;;;;;;;0.35;0.20;;;17.20;59.80;;;;;;5047705;28;20029;-26
2021/11/28 11:07:08;;;;;;;0.20;0.20;;;17.30;59.90;;;;;;5057130;28;20025;-29
2021/11/28 11:09:46;;;;;;;0.28;0.10;;;17.20;59.80;;;;;;5046297;28;20064;-28
2021/11/28 11:12:22;;;;;;;0.25;0.13;;;17.20;59.90;;;;;;5051476;28;20025;-29
2021/11/28 11:14:52;;;;;;;0.22;0.20;;;17.20;59.80;;;;;;5057147;28;20052;-23
2021/11/28 11:17:18;;;;;;;0.30;0.25;;;17.30;59.90;;;;;;5053471;28;20470;-24
2021/11/28 11:19:46;;;;;;;0.38;0.20;;;17.30;59.80;;;;;;5052691;28;20084;-27
2021/11/28 11:22:18;;;;;;;0.35;0.30;;;17.30;59.90;;;;;;5037292;28;20135;-28
2021/11/28 11:24:58;;;;;;;1.48;0.20;;;17.30;59.90;;;;;;5048508;28;20685;-27
2021/11/28 11:27:35;;;;;;;0.30;0.30;;;17.30;61.00;;;;;;5051627;28;20055;-26
2021/11/28 11:30:13;;;;;;;0.68;0.40;;;17.30;60.30;;;;;;5050340;28;20087;-27
2021/11/28 11:32:43;;;;;;;0.30;0.30;;;17.30;60.70;;;;;;5051348;28;20029;-23
2021/11/28 11:35:15;;;;;;;0.20;0.20;;;17.40;61.20;;;;;;5048905;28;20018;-28
2021/11/28 11:37:41;;;;;;;1.60;0.22;;;17.40;61.60;;;;;;5051459;28;20029;-26
2021/11/28 11:40:11;;;;;;;0.30;0.30;;;17.40;62.00;;;;;;5055348;28;20438;-27
2021/11/28 11:42:42;;;;;;;0.47;0.47;;;17.40;62.00;;;;;;5054139;28;20037;-27
2021/11/28 11:45:09;;;;;;;1.45;0.82;;;17.40;62.00;;;;;;5053036;28;20029;-28
2021/11/28 11:47:34;;;;;;;1.00;0.90;;;17.40;61.90;;;;;;5055351;28;20041;-29
2021/11/28 11:50:00;;;;;;;2.38;1.23;;;17.40;62.00;;;;;;5051771;28;20028;-30
2021/11/28 11:52:26;;;;;;;3.30;1.50;;;17.40;62.80;;;;;;5056179;28;20370;-28
2021/11/28 11:54:54;;;;;;;3.42;1.75;;;17.40;63.50;;;;;;5052592;28;20013;-27
2021/11/28 11:57:24;;;;;;;3.42;1.75;;;17.40;63.50;;;;;;5065422;28;20055;-32
2021/11/28 12:00:08;;;;;;;2.35;1.83;;;17.40;63.90;;;;;;5054455;28;20013;-25
2021/11/28 12:02:35;;;;;;;2.35;2.00;;;17.40;63.90;;;;;;5054152;28;20111;-28
2021/11/28 12:05:00;;;;;;;2.47;1.95;;;17.40;63.60;;;;;;5051391;28;20116;-27
2021/11/28 12:07:48;;;;;;;4.70;1.67;;;17.50;63.70;;;;;;5053155;28;20159;-31
2021/11/28 12:10:29;;;;;;;2.00;1.60;;;17.50;63.60;;;;;;5052752;28;20688;-33
2021/11/28 12:12:55;;;;;;;3.97;2.08;;;17.50;63.40;;;;;;5053238;28;20033;-27
2021/11/28 12:15:24;;;;;;;3.22;2.05;;;17.50;63.30;;;;;;5055005;28;20044;-34
2021/11/28 12:17:51;;;;;;;3.25;1.70;;;17.50;63.30;;;;;;5055280;28;20078;-29
2021/11/28 12:20:17;;;;;;;4.85;1.63;;;17.50;63.20;;;;;;5047489;28;20024;-34
2021/11/28 12:22:44;;;;;;;2.53;1.50;;;17.50;63.20;;;;;;5054291;28;20104;-26
2021/11/28 12:25:34;;;;;;;1.23;1.10;;;17.50;63.40;;;;;;5049873;28;20029;-26
2021/11/28 12:28:20;;;;;;;2.45;1.15;;;17.50;63.30;;;;;;5050113;28;20036;-30
2021/11/28 12:30:57;;;;;;;1.45;1.35;;;17.50;63.20;;;;;;5054570;28;20116;-30
2021/11/28 12:33:51;;;;;;;2.10;1.45;;;17.50;63.10;;;;;;5054302;28;20017;-24
2021/11/28 12:36:35;;;;;;;2.55;1.60;;;17.50;63.30;;;;;;5053874;28;20052;-35
2021/11/28 12:39:08;;;;;;;1.45;1.25;;;17.50;63.50;;;;;;5053675;28;20630;-27
2021/11/28 12:41:46;;;;;;;1.33;1.15;;;17.50;63.20;;;;;;5055428;28;20402;-28
2021/11/28 12:44:12;;;;;;;1.45;1.35;;;17.50;63.30;;;;;;5055395;28;20035;-27
2021/11/28 12:46:40;;;;;;;2.25;1.30;;;17.50;63.30;;;;;;5054513;28;20033;-29
2021/11/28 12:49:25;;;;;;;2.25;1.50;;;17.50;63.30;;;;;;5053398;28;20027;-31
2021/11/28 12:51:51;;;;;;;1.55;1.00;;;17.50;63.50;;;;;;5046136;28;20856;-28
2021/11/28 12:54:29;;;;;;;1.58;1.30;;;17.50;63.40;;;;;;5050710;28;20049;-28
2021/11/28 12:57:19;;;;;;;2.00;1.50;;;17.50;63.30;;;;;;5052576;28;20037;-31